Etusivu
METAR-TAF:

METAR-TAF

Lentoasemat :

Iowa City Municipal Airport

Iowa City, Iowa, Yhdysvallat

Leveyspiiri: 41-37-58N, Pituuspiiri: 091-32-35W, korkeus merenpinnasta: 203 m

Tämänhetkinen sää

Tämä raportti tehtiin 42 minuuttia sitten, kello 01.52 UTC
Tuuli 5 kn idästä/kaakosta
Lämpötila 3°C
Kosteus 87%
Ilmanpaine 1007 hPa
Näkyvyys: 16.1 km
Pilvistä 8000 ft:n korkeudessa

METAR: KIOW 190152Z AUTO 12005KT 10SM OVC080 03/01 A2974 RMK AO2 SLP076 T00330006

Aika: 20:34 (02:34 UTC)


TAF: puuttuu

Säähavainnot ja -ennusteet yli 4000 lentoasemalta (METAR- ja TAF-raportit).

Käytössä olevat sääasemat on merkitty karttaan keltaisilla ja punaisilla pisteillä.

Aseta hiiri pisteen päälle nähdäksesi sääaseman nimen.

Klikkaa sitten nähdäksesi säähavainnot ja -ennusteet.

Kartan vaihtaminen: klikkaa mustalla rastilla varustettuja vihreitä pisteitä, niin voit zoomata sisään; viivalla varustettua vihreää pistettä, niin voit zoomata ulos tai vihreitä nuolia, niin pääset viereisille kartoille.


METAR-TAF: